createdAt,value
2018-11-29T00:00:25.811Z,13.83
2018-11-29T00:02:54.007Z,13.90
2018-11-29T00:05:22.900Z,14.77
2018-11-29T00:07:51.699Z,14.67
2018-11-29T00:10:19.820Z,15.03
2018-11-29T00:12:48.024Z,15.13
2018-11-29T00:15:16.481Z,15.83
2018-11-29T00:17:44.650Z,14.83
2018-11-29T00:20:14.024Z,12.80
2018-11-29T00:22:42.814Z,13.90
2018-11-29T00:25:12.137Z,14.80
2018-11-29T00:27:40.362Z,15.37
2018-11-29T00:30:09.993Z,13.90
2018-11-29T00:32:38.355Z,14.03
2018-11-29T00:35:08.129Z,13.63
2018-11-29T00:37:36.636Z,12.53
2018-11-29T00:40:07.306Z,12.00
2018-11-29T00:42:35.482Z,13.37
2018-11-29T00:45:04.045Z,12.40
2018-11-29T00:47:32.557Z,11.53
2018-11-29T00:50:00.733Z,11.93
2018-11-29T00:52:29.299Z,11.53
2018-11-29T00:54:57.478Z,12.13
2018-11-29T00:57:25.658Z,11.60
2018-11-29T00:59:53.826Z,12.23
2018-11-29T01:02:22.004Z,12.50
2018-11-29T01:04:50.193Z,11.57
2018-11-29T01:07:18.401Z,10.97
2018-11-29T01:09:46.604Z,12.30
2018-11-29T01:12:14.758Z,10.33
2018-11-29T01:14:42.941Z,10.23
2018-11-29T01:17:11.277Z,10.77
2018-11-29T01:19:39.445Z,10.83
2018-11-29T01:22:07.609Z,9.70
2018-11-29T01:24:35.813Z,9.00
2018-11-29T01:27:03.972Z,9.73
2018-11-29T01:29:32.149Z,9.43
2018-11-29T01:32:00.329Z,10.07
2018-11-29T01:34:32.400Z,10.90
2018-11-29T01:37:00.562Z,10.23
2018-11-29T01:39:28.953Z,9.97
2018-11-29T01:41:57.108Z,10.33
2018-11-29T01:44:25.282Z,9.03
2018-11-29T01:46:53.469Z,10.07
2018-11-29T01:49:21.652Z,9.73
2018-11-29T01:51:50.169Z,9.97
2018-11-29T01:54:18.377Z,10.13
2018-11-29T01:56:46.545Z,8.80
2018-11-29T01:59:15.581Z,10.00
2018-11-29T02:01:44.176Z,9.63
2018-11-29T02:04:12.368Z,9.30
2018-11-29T02:06:40.530Z,8.60
2018-11-29T02:09:09.553Z,10.07
2018-11-29T02:11:37.715Z,9.50
2018-11-29T02:14:06.249Z,9.50
2018-11-29T02:16:34.423Z,10.57
2018-11-29T02:19:02.588Z,9.07
2018-11-29T02:21:31.362Z,9.87
2018-11-29T02:23:59.549Z,9.67
2018-11-29T02:26:27.749Z,10.67
2018-11-29T02:28:55.905Z,10.50
2018-11-29T02:31:24.109Z,10.20
2018-11-29T02:33:52.253Z,9.97
2018-11-29T02:36:20.750Z,10.60
2018-11-29T02:38:48.915Z,10.13
2018-11-29T02:41:17.125Z,9.33
2018-11-29T02:43:45.309Z,10.27
2018-11-29T02:46:13.476Z,10.43
2018-11-29T02:48:41.642Z,10.07
2018-11-29T02:51:09.845Z,9.03
2018-11-29T02:53:38.010Z,10.13
2018-11-29T02:56:06.190Z,8.97
2018-11-29T02:58:34.349Z,10.43
2018-11-29T03:01:08.947Z,10.40
2018-11-29T03:03:37.328Z,10.30
2018-11-29T03:06:05.781Z,9.27
2018-11-29T03:08:34.748Z,9.50
2018-11-29T03:11:02.935Z,8.77
2018-11-29T03:13:31.114Z,9.73
2018-11-29T03:15:59.313Z,9.07
2018-11-29T03:18:27.465Z,9.60
2018-11-29T03:20:55.717Z,9.10
2018-11-29T03:23:23.881Z,9.47
2018-11-29T03:25:52.549Z,10.23
2018-11-29T03:28:20.770Z,10.30
2018-11-29T03:30:48.961Z,9.23
2018-11-29T03:33:18.238Z,9.67
2018-11-29T03:35:46.409Z,9.97
2018-11-29T03:38:14.586Z,9.47
2018-11-29T03:40:42.783Z,8.63
2018-11-29T03:43:10.966Z,9.50
2018-11-29T03:45:39.129Z,8.60
2018-11-29T03:48:07.316Z,9.07
2018-11-29T03:50:35.486Z,8.73
2018-11-29T03:53:03.730Z,8.93
2018-11-29T03:55:31.917Z,9.70
2018-11-29T03:58:00.109Z,9.00
2018-11-29T04:00:28.269Z,9.47
2018-11-29T04:02:56.453Z,9.03
2018-11-29T04:05:24.641Z,8.97
2018-11-29T04:07:52.814Z,9.57
2018-11-29T04:10:21.010Z,9.20
2018-11-29T04:12:49.172Z,8.20
2018-11-29T04:15:17.377Z,8.57
2018-11-29T04:17:45.581Z,9.13
2018-11-29T04:20:15.566Z,8.83
2018-11-29T04:22:43.746Z,9.03
2018-11-29T04:25:13.258Z,9.47
2018-11-29T04:27:41.487Z,9.67
2018-11-29T04:30:12.443Z,8.67
2018-11-29T04:32:41.053Z,8.77
2018-11-29T04:35:13.109Z,8.97
2018-11-29T04:37:41.288Z,10.30
2018-11-29T04:40:13.878Z,9.80
2018-11-29T04:42:42.059Z,8.37
2018-11-29T04:45:11.429Z,8.10
2018-11-29T04:47:39.613Z,7.90
2018-11-29T04:50:07.809Z,7.60
2018-11-29T04:52:36.017Z,8.20
2018-11-29T04:55:04.218Z,8.83
2018-11-29T04:57:32.404Z,9.43
2018-11-29T05:00:00.607Z,8.30
2018-11-29T05:02:28.967Z,8.90
2018-11-29T05:04:58.087Z,9.07
2018-11-29T05:07:26.269Z,8.87
2018-11-29T05:09:54.657Z,8.63
2018-11-29T05:12:23.535Z,8.80
2018-11-29T05:14:52.404Z,8.90
2018-11-29T05:17:20.568Z,8.53
2018-11-29T05:19:48.788Z,8.53
2018-11-29T05:22:16.981Z,8.80
2018-11-29T05:24:45.153Z,7.90
2018-11-29T05:27:14.185Z,7.63
2018-11-29T05:29:42.353Z,8.70
2018-11-29T05:32:11.088Z,8.10
2018-11-29T05:34:39.245Z,9.80
2018-11-29T05:37:07.472Z,9.60
2018-11-29T05:39:35.644Z,9.20
2018-11-29T05:42:03.858Z,9.50
2018-11-29T05:44:32.029Z,8.57
2018-11-29T05:47:00.249Z,8.53
2018-11-29T05:49:28.420Z,9.70
2018-11-29T05:51:56.585Z,8.47
2018-11-29T05:54:24.801Z,8.13
2018-11-29T05:56:52.991Z,7.90
2018-11-29T05:59:21.181Z,8.67
2018-11-29T06:01:50.385Z,9.03
2018-11-29T06:04:19.128Z,7.47
2018-11-29T06:06:47.302Z,7.93
2018-11-29T06:09:15.499Z,8.23
2018-11-29T06:11:43.661Z,8.87
2018-11-29T06:14:11.852Z,8.73
2018-11-29T06:16:40.042Z,9.23
2018-11-29T06:19:09.022Z,9.47
2018-11-29T06:21:37.197Z,8.93
2018-11-29T06:24:06.361Z,8.10
2018-11-29T06:26:34.538Z,7.80
2018-11-29T06:29:02.941Z,8.60
2018-11-29T06:31:31.142Z,8.00
2018-11-29T06:33:59.317Z,8.37
2018-11-29T06:36:27.912Z,7.90
2018-11-29T06:38:56.138Z,8.77
2018-11-29T06:41:24.709Z,8.90
2018-11-29T06:43:53.000Z,7.60
2018-11-29T06:46:21.197Z,7.93
2018-11-29T06:48:49.406Z,8.87
2018-11-29T06:51:17.576Z,8.53
2018-11-29T06:53:51.550Z,9.40
2018-11-29T06:56:20.109Z,8.80
2018-11-29T06:58:48.312Z,9.50
2018-11-29T07:01:16.501Z,9.27
2018-11-29T07:03:44.700Z,8.37
2018-11-29T07:06:12.899Z,8.97
2018-11-29T07:08:41.091Z,8.20
2018-11-29T07:11:09.480Z,8.03
2018-11-29T07:13:37.730Z,8.77
2018-11-29T07:16:06.349Z,7.90
2018-11-29T07:18:34.563Z,7.63
2018-11-29T07:21:14.261Z,7.27
2018-11-29T07:23:42.537Z,7.67
2018-11-29T07:26:10.704Z,7.23
2018-11-29T07:28:38.905Z,7.43
2018-11-29T07:31:07.082Z,7.00
2018-11-29T07:33:35.268Z,7.53
2018-11-29T07:36:03.456Z,6.80
2018-11-29T07:38:31.865Z,7.40
2018-11-29T07:41:00.053Z,7.00
2018-11-29T07:43:28.245Z,7.67
2018-11-29T07:45:56.628Z,7.73
2018-11-29T07:48:24.820Z,7.43
2018-11-29T07:50:52.993Z,7.60
2018-11-29T07:53:21.202Z,7.47
2018-11-29T07:55:49.378Z,7.17
2018-11-29T07:58:17.565Z,6.90
2018-11-29T08:00:45.724Z,8.57
2018-11-29T08:03:13.924Z,8.90
2018-11-29T08:05:42.117Z,8.20
2018-11-29T08:08:10.268Z,7.37
2018-11-29T08:10:39.145Z,8.10
2018-11-29T08:13:07.309Z,7.90
2018-11-29T08:15:35.828Z,8.50
2018-11-29T08:18:03.996Z,7.80
2018-11-29T08:20:32.157Z,7.30
2018-11-29T08:23:00.345Z,8.20
2018-11-29T08:25:28.864Z,7.80
2018-11-29T08:27:57.069Z,7.00
2018-11-29T08:30:25.236Z,7.90
2018-11-29T08:32:54.344Z,9.10
2018-11-29T08:35:22.996Z,7.27
2018-11-29T08:37:51.192Z,6.60
2018-11-29T08:40:20.396Z,7.57
2018-11-29T08:42:48.600Z,7.67
2018-11-29T08:45:16.807Z,7.20
2018-11-29T08:47:45.002Z,6.83
2018-11-29T08:50:13.912Z,6.80
2018-11-29T08:52:43.096Z,6.97
2018-11-29T08:55:13.320Z,6.43
2018-11-29T08:57:41.492Z,7.17
2018-11-29T09:00:16.274Z,7.27
2018-11-29T09:02:44.478Z,7.33
2018-11-29T09:05:13.152Z,7.17
2018-11-29T09:07:41.765Z,7.30
2018-11-29T09:10:19.605Z,7.53
2018-11-29T09:12:47.940Z,8.43
2018-11-29T09:15:16.684Z,8.17
2018-11-29T09:17:44.881Z,7.20
2018-11-29T09:20:16.910Z,7.80
2018-11-29T09:22:45.300Z,6.97
2018-11-29T09:25:15.481Z,7.23
2018-11-29T09:27:43.673Z,7.13
2018-11-29T09:30:18.953Z,6.87
2018-11-29T09:32:48.529Z,7.63
2018-11-29T09:35:16.885Z,7.20
2018-11-29T09:37:45.074Z,6.83
2018-11-29T09:40:16.021Z,7.30
2018-11-29T09:42:44.418Z,8.80
2018-11-29T09:45:14.201Z,7.17
2018-11-29T09:47:42.985Z,7.50
2018-11-29T09:50:12.296Z,7.17
2018-11-29T09:52:40.886Z,7.03
2018-11-29T09:55:10.516Z,6.70
2018-11-29T09:57:38.709Z,6.47
2018-11-29T10:00:14.381Z,6.63
2018-11-29T10:02:44.250Z,7.00
2018-11-29T10:05:13.076Z,5.97
2018-11-29T10:07:41.269Z,6.37
2018-11-29T10:10:11.022Z,6.73
2018-11-29T10:12:39.893Z,6.80
2018-11-29T10:15:09.980Z,7.17
2018-11-29T10:17:38.478Z,7.67
2018-11-29T10:20:12.361Z,6.97
2018-11-29T10:22:41.574Z,7.30
2018-11-29T10:25:12.095Z,7.60
2018-11-29T10:27:40.888Z,7.50
2018-11-29T10:30:12.841Z,7.17
2018-11-29T10:32:41.689Z,7.10
2018-11-29T10:35:13.237Z,7.57
2018-11-29T10:37:41.431Z,6.90
2018-11-29T10:40:10.309Z,6.67
2018-11-29T10:42:38.516Z,7.47
2018-11-29T10:45:21.377Z,5.80
2018-11-29T10:47:52.738Z,7.07
2018-11-29T10:50:20.135Z,6.87
2018-11-29T10:52:48.322Z,6.70
2018-11-29T10:55:17.504Z,7.23
2018-11-29T10:57:45.678Z,7.07
2018-11-29T11:00:27.769Z,7.57
2018-11-29T11:03:02.466Z,6.60
2018-11-29T11:05:30.980Z,7.47
2018-11-29T11:07:59.167Z,7.70
2018-11-29T11:10:27.341Z,7.30
2018-11-29T11:12:55.545Z,6.87
2018-11-29T11:15:24.382Z,7.43
2018-11-29T11:17:52.599Z,6.97
2018-11-29T11:20:20.777Z,7.70
2018-11-29T11:22:48.949Z,6.63
2018-11-29T11:25:17.133Z,7.33
2018-11-29T11:27:45.534Z,6.70
2018-11-29T11:30:17.778Z,7.10
2018-11-29T11:32:47.221Z,7.83
2018-11-29T11:35:15.406Z,7.43
2018-11-29T11:37:43.591Z,7.20
2018-11-29T11:40:12.973Z,7.23
2018-11-29T11:42:41.144Z,6.77
2018-11-29T11:45:14.732Z,7.63
2018-11-29T11:47:43.229Z,7.53
2018-11-29T11:50:15.473Z,7.60
2018-11-29T11:52:43.647Z,7.80
2018-11-29T11:55:18.722Z,6.80
2018-11-29T11:57:41.016Z,7.03
2018-11-29T12:00:11.844Z,7.30
2018-11-29T12:02:40.024Z,7.60
2018-11-29T12:05:09.112Z,6.90
2018-11-29T12:07:37.481Z,7.37
2018-11-29T12:10:08.045Z,7.50
2018-11-29T12:12:36.210Z,9.70
2018-11-29T12:15:04.880Z,7.43
2018-11-29T12:17:33.048Z,7.80
2018-11-29T12:20:01.233Z,7.77
2018-11-29T12:22:29.413Z,7.40
2018-11-29T12:24:57.581Z,7.20
2018-11-29T12:27:26.098Z,7.33
2018-11-29T12:29:54.253Z,7.83
2018-11-29T12:32:22.417Z,8.00
2018-11-29T12:34:50.582Z,8.30
2018-11-29T12:37:18.791Z,8.37
2018-11-29T12:39:46.971Z,7.53
2018-11-29T12:42:15.166Z,8.60
2018-11-29T12:44:43.326Z,8.23
2018-11-29T12:47:11.517Z,7.80
2018-11-29T12:49:39.679Z,8.83
2018-11-29T12:52:07.866Z,8.70
2018-11-29T12:54:36.048Z,8.67
2018-11-29T12:57:04.217Z,9.10
2018-11-29T12:59:32.402Z,8.93
2018-11-29T13:02:03.657Z,9.27
2018-11-29T13:04:32.281Z,9.07
2018-11-29T13:07:00.036Z,9.93
2018-11-29T13:09:28.237Z,9.20
2018-11-29T13:11:56.394Z,9.40
2018-11-29T13:14:24.587Z,9.07
2018-11-29T13:16:52.749Z,9.73
2018-11-29T13:19:20.942Z,9.27
2018-11-29T13:21:49.101Z,8.93
2018-11-29T13:24:17.625Z,9.93
2018-11-29T13:26:45.800Z,9.63
2018-11-29T13:29:13.989Z,10.83
2018-11-29T13:31:42.189Z,9.83
2018-11-29T13:34:11.342Z,10.40
2018-11-29T13:36:39.522Z,10.97
2018-11-29T13:39:09.428Z,12.00
2018-11-29T13:41:38.110Z,11.00
2018-11-29T13:44:06.358Z,11.67
2018-11-29T13:46:34.468Z,10.67
2018-11-29T13:49:02.648Z,11.17
2018-11-29T13:51:30.877Z,11.30
2018-11-29T13:53:59.053Z,11.77
2018-11-29T13:56:27.253Z,11.70
2018-11-29T13:58:55.446Z,12.17
2018-11-29T14:01:23.614Z,13.20
2018-11-29T14:03:51.821Z,12.80
2018-11-29T14:06:19.997Z,13.50
2018-11-29T14:08:48.176Z,12.83
2018-11-29T14:11:16.361Z,14.70
2018-11-29T14:13:44.577Z,14.67
2018-11-29T14:16:12.745Z,14.33
2018-11-29T14:18:40.946Z,13.13
2018-11-29T14:21:09.153Z,13.37
2018-11-29T14:23:37.325Z,13.97
2018-11-29T14:26:05.828Z,17.87
2018-11-29T14:28:34.009Z,16.17
2018-11-29T14:31:02.204Z,15.13
2018-11-29T14:33:30.392Z,13.93
2018-11-29T14:35:58.583Z,14.47
2018-11-29T14:38:26.778Z,14.03
2018-11-29T14:40:54.969Z,13.47
2018-11-29T14:43:23.160Z,14.23
2018-11-29T14:45:51.358Z,13.87
2018-11-29T14:48:19.602Z,13.50
2018-11-29T14:50:47.813Z,13.93
2018-11-29T14:53:16.010Z,14.30
2018-11-29T14:55:44.227Z,14.40
2018-11-29T14:58:13.652Z,13.93
2018-11-29T15:00:41.854Z,15.30
2018-11-29T15:03:12.481Z,15.30
2018-11-29T15:05:40.708Z,14.93
2018-11-29T15:08:09.712Z,16.10
2018-11-29T15:10:38.976Z,16.00
2018-11-29T15:13:08.317Z,13.80
2018-11-29T15:15:36.903Z,14.67
2018-11-29T15:18:05.770Z,13.53
2018-11-29T15:20:36.824Z,14.70
2018-11-29T15:23:05.374Z,15.93
2018-11-29T15:25:33.573Z,17.63
2018-11-29T15:28:01.758Z,18.50
2018-11-29T15:30:29.965Z,19.27
2018-11-29T15:32:58.152Z,19.53
2018-11-29T15:35:26.815Z,18.03
2018-11-29T15:37:55.021Z,20.23
2018-11-29T15:40:23.229Z,19.27
2018-11-29T15:42:52.744Z,19.67
2018-11-29T15:45:23.992Z,18.60
2018-11-29T15:47:52.206Z,19.47
2018-11-29T15:50:20.389Z,19.40
2018-11-29T15:52:48.617Z,20.83
2018-11-29T15:55:20.325Z,22.70
2018-11-29T15:57:52.874Z,20.13
2018-11-29T16:00:23.006Z,17.43
2018-11-29T16:02:51.601Z,16.87
2018-11-29T16:05:19.785Z,17.40
2018-11-29T16:07:47.989Z,18.33
2018-11-29T16:13:13.619Z,18.00
2018-11-29T16:15:41.836Z,18.77
2018-11-29T16:18:10.013Z,16.85
2018-11-29T16:20:39.333Z,17.70
2018-11-29T16:23:09.032Z,16.67
2018-11-29T16:25:37.221Z,17.63
2018-11-29T16:28:06.168Z,21.30
2018-11-29T16:30:37.746Z,20.23
2018-11-29T16:33:11.161Z,18.30
2018-11-29T16:35:39.327Z,16.70
2018-11-29T16:38:07.839Z,17.43
2018-11-29T16:40:36.293Z,18.80
2018-11-29T16:43:04.478Z,19.33
2018-11-29T16:45:33.525Z,19.43
2018-11-29T16:48:01.729Z,17.73
2018-11-29T16:50:29.904Z,19.67
2018-11-29T16:52:58.113Z,21.47
2018-11-29T16:55:26.329Z,19.50
2018-11-29T16:57:56.548Z,19.60
2018-11-29T17:00:25.093Z,19.17
2018-11-29T17:02:53.296Z,19.40
2018-11-29T17:05:21.476Z,20.00
2018-11-29T17:07:49.693Z,20.73
2018-11-29T17:10:22.932Z,19.30
2018-11-29T17:12:55.520Z,17.83
2018-11-29T17:15:23.841Z,19.50
2018-11-29T17:17:52.022Z,21.27
2018-11-29T17:20:20.695Z,20.33
2018-11-29T17:22:50.041Z,20.07
2018-11-29T17:25:18.248Z,19.80
2018-11-29T17:27:46.958Z,19.73
2018-11-29T17:30:24.592Z,19.53
2018-11-29T17:32:54.792Z,19.63
2018-11-29T17:35:23.985Z,18.80
2018-11-29T17:37:53.364Z,18.37
2018-11-29T17:40:22.069Z,19.83
2018-11-29T17:42:51.285Z,19.67
2018-11-29T17:45:26.030Z,18.37
2018-11-29T17:48:01.768Z,18.60
2018-11-29T17:50:34.527Z,18.83
2018-11-29T17:53:02.697Z,18.83
2018-11-29T17:55:30.905Z,18.27
2018-11-29T17:57:59.111Z,19.03
2018-11-29T18:00:29.815Z,22.37
2018-11-29T18:02:58.004Z,23.97
2018-11-29T18:05:26.204Z,23.10
2018-11-29T18:07:54.389Z,23.97
2018-11-29T18:10:24.664Z,22.10
2018-11-29T18:12:54.713Z,23.33
2018-11-29T18:15:24.562Z,21.30
2018-11-29T18:17:52.988Z,27.43
2018-11-29T18:20:21.168Z,29.27
2018-11-29T18:22:49.393Z,28.60
2018-11-29T18:25:17.969Z,26.53
2018-11-29T18:27:47.481Z,25.53
2018-11-29T18:30:16.624Z,22.40
2018-11-29T18:32:44.828Z,21.63
2018-11-29T18:35:14.209Z,20.57
2018-11-29T18:37:42.605Z,19.27
2018-11-29T18:40:17.339Z,20.17
2018-11-29T18:42:46.969Z,21.17
2018-11-29T18:45:16.192Z,20.43
2018-11-29T18:47:45.142Z,22.17
2018-11-29T18:50:17.456Z,23.60
2018-11-29T18:52:45.684Z,27.60
2018-11-29T18:55:13.844Z,29.37
2018-11-29T18:57:42.561Z,26.33
2018-11-29T19:00:15.025Z,24.27
2018-11-29T19:02:43.313Z,25.23
2018-11-29T19:05:11.533Z,24.67
2018-11-29T19:07:39.730Z,21.77
2018-11-29T19:10:11.745Z,22.47
2018-11-29T19:12:42.390Z,20.30
2018-11-29T19:15:11.909Z,20.40
2018-11-29T19:17:40.228Z,21.17
2018-11-29T19:20:11.141Z,20.43
2018-11-29T19:22:41.236Z,22.47
2018-11-29T19:25:14.727Z,21.70
2018-11-29T19:27:42.933Z,22.57
2018-11-29T19:30:32.426Z,23.73
2018-11-29T19:33:17.353Z,24.37
2018-11-29T19:35:41.652Z,24.37
2018-11-29T19:38:09.858Z,25.63
2018-11-29T19:40:38.069Z,23.13
2018-11-29T19:43:07.079Z,23.03
2018-11-29T19:45:35.265Z,24.10
2018-11-29T19:48:03.464Z,24.20
2018-11-29T19:50:32.280Z,24.30
2018-11-29T19:53:01.028Z,25.60
2018-11-29T19:55:31.361Z,25.80
2018-11-29T19:58:00.149Z,27.00
2018-11-29T20:00:28.354Z,27.97
2018-11-29T20:02:56.936Z,26.07
2018-11-29T20:05:25.439Z,26.47
2018-11-29T20:07:53.638Z,24.90
2018-11-29T20:10:21.838Z,26.53
2018-11-29T20:12:58.553Z,24.87
2018-11-29T20:15:26.795Z,23.10
2018-11-29T20:17:54.968Z,25.90
2018-11-29T20:20:23.171Z,25.83
2018-11-29T20:22:51.344Z,24.17
2018-11-29T20:25:21.481Z,22.67
2018-11-29T20:27:49.657Z,22.80
2018-11-29T20:30:19.166Z,23.10
2018-11-29T20:32:48.301Z,23.43
2018-11-29T20:35:17.683Z,21.87
2018-11-29T20:37:45.933Z,23.03
2018-11-29T20:40:21.125Z,22.37
2018-11-29T20:42:50.297Z,23.07
2018-11-29T20:45:20.628Z,23.00
2018-11-29T20:47:48.795Z,22.07
2018-11-29T20:50:18.618Z,23.03
2018-11-29T20:52:47.513Z,24.20
2018-11-29T20:55:18.425Z,22.93
2018-11-29T20:57:46.642Z,21.17
2018-11-29T21:00:15.301Z,21.27
2018-11-29T21:02:43.716Z,20.40
2018-11-29T21:05:13.289Z,20.67
2018-11-29T21:07:42.767Z,21.70
2018-11-29T21:10:15.051Z,21.70
2018-11-29T21:12:43.636Z,22.60
2018-11-29T21:15:11.844Z,20.17
2018-11-29T21:17:40.064Z,32.33
2018-11-29T21:20:10.221Z,27.10
2018-11-29T21:22:38.437Z,22.10
2018-11-29T21:25:10.945Z,21.57
2018-11-29T21:27:39.135Z,21.53
2018-11-29T21:30:10.679Z,20.70
2018-11-29T21:32:38.844Z,21.00
2018-11-29T21:35:07.817Z,19.17
2018-11-29T21:37:36.048Z,23.30
2018-11-29T21:40:08.248Z,19.93
2018-11-29T21:42:36.931Z,22.03
2018-11-29T21:45:05.112Z,20.53
2018-11-29T21:47:33.897Z,17.07
2018-11-29T21:50:02.128Z,19.37
2018-11-29T21:52:30.288Z,18.17
2018-11-29T21:54:58.493Z,19.77
2018-11-29T21:57:27.223Z,19.53
2018-11-29T21:59:55.437Z,18.43
2018-11-29T22:02:23.633Z,20.90
2018-11-29T22:04:51.848Z,18.92
2018-11-29T22:07:20.013Z,17.60
2018-11-29T22:09:48.193Z,18.63
2018-11-29T22:12:16.392Z,18.63
2018-11-29T22:14:44.565Z,18.50
2018-11-29T22:17:12.749Z,19.43
2018-11-29T22:19:40.944Z,18.53
2018-11-29T22:22:09.145Z,18.13
2018-11-29T22:24:37.659Z,18.43
2018-11-29T22:27:05.965Z,18.63
2018-11-29T22:29:34.135Z,17.40
2018-11-29T22:32:02.370Z,16.57
2018-11-29T22:34:30.579Z,15.90
2018-11-29T22:36:58.751Z,17.30
2018-11-29T22:39:26.941Z,17.20
2018-11-29T22:41:55.202Z,16.13
2018-11-29T22:44:23.418Z,17.00
2018-11-29T22:46:51.610Z,16.80
2018-11-29T22:49:19.857Z,17.27
2018-11-29T22:51:48.101Z,16.30
2018-11-29T22:54:19.965Z,15.60
2018-11-29T22:56:48.133Z,17.50
2018-11-29T22:59:17.239Z,17.47
2018-11-29T23:01:45.436Z,15.50
2018-11-29T23:04:14.163Z,17.60
2018-11-29T23:06:42.331Z,17.40
2018-11-29T23:09:10.549Z,16.23
2018-11-29T23:11:38.732Z,17.40
2018-11-29T23:14:06.920Z,16.73
2018-11-29T23:16:35.145Z,17.10
2018-11-29T23:19:03.321Z,17.00
2018-11-29T23:21:31.533Z,17.07
2018-11-29T23:23:59.781Z,17.30
2018-11-29T23:26:28.000Z,16.90
2018-11-29T23:28:56.225Z,17.47
2018-11-29T23:31:24.505Z,16.93
2018-11-29T23:33:53.299Z,18.30
2018-11-29T23:36:21.469Z,18.93
2018-11-29T23:38:49.695Z,18.07
2018-11-29T23:41:17.900Z,17.20
2018-11-29T23:43:46.124Z,17.30
2018-11-29T23:46:14.301Z,16.60
2018-11-29T23:48:42.725Z,18.17
2018-11-29T23:51:10.905Z,16.97
2018-11-29T23:53:39.096Z,16.27
2018-11-29T23:56:07.306Z,16.43
2018-11-29T23:58:39.249Z,16.60
